Time;durP1;ratioP1;P1;durP2;ratioP2;P2;SDS_P1;SDS_P2;PMS_P1;PMS_P2;Temp;Humidity;BMP_temperature;BMP_pressure;BME280_temperature;BME280_humidity;BME280_pressure;Samples;Min_cycle;Max_cycle;Signal;HPM_P1;HPM_P2
2023/08/31 00:02:03;;;;;;;7.83;4.83;;;11.50;99.90;;;;;;4994053;28;20231;-65
2023/08/31 00:04:29;;;;;;;8.73;5.07;;;11.40;99.90;;;;;;5008893;28;20615;-66
2023/08/31 00:06:56;;;;;;;9.37;5.10;;;11.30;99.90;;;;;;4993522;28;20247;-66
2023/08/31 00:09:24;;;;;;;8.60;4.83;;;11.30;99.90;;;;;;4994274;28;20181;-65
2023/08/31 00:11:50;;;;;;;15.93;5.83;;;11.40;99.90;;;;;;4994212;28;20182;-65
2023/08/31 00:14:16;;;;;;;10.97;5.07;;;11.30;99.90;;;;;;4993915;28;20271;-65
2023/08/31 00:16:41;;;;;;;8.90;5.13;;;11.40;99.90;;;;;;5008386;28;20291;-65
2023/08/31 00:19:07;;;;;;;10.10;5.70;;;11.40;99.90;;;;;;4993533;28;20268;-65
2023/08/31 00:21:33;;;;;;;9.80;5.60;;;11.40;99.90;;;;;;4993877;28;20359;-65
2023/08/31 00:23:59;;;;;;;7.03;4.33;;;11.40;99.90;;;;;;5008872;28;20690;-65
2023/08/31 00:26:24;;;;;;;7.87;4.23;;;11.40;99.90;;;;;;4993717;28;20181;-65
2023/08/31 00:28:50;;;;;;;13.80;4.70;;;11.40;99.90;;;;;;4993013;28;20186;-65
2023/08/31 00:31:15;;;;;;;8.67;5.27;;;11.40;99.90;;;;;;4993490;28;20548;-65
2023/08/31 00:33:41;;;;;;;20.80;5.57;;;11.40;99.90;;;;;;4993650;28;20332;-66
2023/08/31 00:36:07;;;;;;;7.90;4.57;;;11.40;99.90;;;;;;4993553;28;20204;-65
2023/08/31 00:38:33;;;;;;;17.03;5.53;;;11.40;99.90;;;;;;5007909;28;20658;-65
2023/08/31 00:40:59;;;;;;;13.60;4.87;;;11.40;99.90;;;;;;4993501;28;20256;-65
2023/08/31 00:43:25;;;;;;;8.13;5.17;;;11.40;99.90;;;;;;4993442;28;20942;-66
2023/08/31 00:45:52;;;;;;;17.63;5.20;;;11.40;99.90;;;;;;5008326;28;20201;-65
2023/08/31 00:48:18;;;;;;;9.00;4.60;;;11.40;99.90;;;;;;5007603;28;20264;-65
2023/08/31 00:50:44;;;;;;;9.60;5.10;;;11.30;99.90;;;;;;5007964;28;20304;-66
2023/08/31 00:53:10;;;;;;;9.53;5.43;;;11.30;99.90;;;;;;5008262;28;20201;-66
2023/08/31 00:55:36;;;;;;;9.33;4.80;;;11.20;99.90;;;;;;5008076;28;20670;-65
2023/08/31 00:58:01;;;;;;;14.47;5.20;;;11.20;99.90;;;;;;5007596;28;20180;-66
2023/08/31 01:00:40;;;;;;;9.73;5.13;;;11.20;99.90;;;;;;4993038;28;20647;-66
2023/08/31 01:03:09;;;;;;;10.53;5.70;;;11.10;99.90;;;;;;5007647;28;20252;-66
2023/08/31 01:06:02;;;;;;;12.27;6.13;;;11.10;99.90;;;;;;5008248;28;20189;-66
2023/08/31 01:08:53;;;;;;;12.07;5.93;;;10.90;99.90;;;;;;5007340;28;20173;-66
2023/08/31 01:11:27;;;;;;;15.60;5.53;;;11.00;99.90;;;;;;4993017;28;20505;-66
2023/08/31 01:13:57;;;;;;;10.43;5.70;;;11.00;99.90;;;;;;5007765;28;20212;-66
2023/08/31 01:16:24;;;;;;;20.63;6.73;;;11.00;99.90;;;;;;4992569;28;20292;-66
2023/08/31 01:18:49;;;;;;;21.20;6.70;;;11.00;99.90;;;;;;5007045;28;20165;-65
2023/08/31 01:21:35;;;;;;;20.23;7.20;;;11.00;99.90;;;;;;5007786;28;20184;-65
2023/08/31 01:24:01;;;;;;;18.07;7.53;;;11.10;99.90;;;;;;5007482;28;20717;-66
2023/08/31 01:26:27;;;;;;;9.43;5.07;;;11.10;99.90;;;;;;5007750;28;20177;-65
2023/08/31 01:28:54;;;;;;;21.33;6.90;;;11.10;99.90;;;;;;5006766;28;20189;-65
2023/08/31 01:31:20;;;;;;;18.33;6.80;;;11.10;99.90;;;;;;4992433;28;20192;-66
2023/08/31 01:33:45;;;;;;;10.77;6.23;;;11.10;99.90;;;;;;4992309;28;20205;-65
2023/08/31 01:36:25;;;;;;;18.60;6.23;;;11.10;99.90;;;;;;4992361;28;20262;-66
2023/08/31 01:38:56;;;;;;;13.23;6.13;;;11.10;99.90;;;;;;4991912;28;20165;-66
2023/08/31 01:41:21;;;;;;;14.50;5.90;;;11.00;99.90;;;;;;5006866;28;20181;-66
2023/08/31 01:43:47;;;;;;;12.23;5.23;;;11.00;99.90;;;;;;5007356;28;20197;-66
2023/08/31 01:46:12;;;;;;;9.13;5.27;;;11.00;99.90;;;;;;5007210;28;20177;-65
2023/08/31 01:48:41;;;;;;;12.43;5.57;;;11.10;99.90;;;;;;5006834;28;20187;-65
2023/08/31 01:51:07;;;;;;;20.77;6.50;;;11.10;99.90;;;;;;5007439;28;20188;-66
2023/08/31 01:53:34;;;;;;;11.60;5.43;;;11.00;99.90;;;;;;4992022;28;20690;-65
2023/08/31 01:56:00;;;;;;;12.33;6.00;;;11.00;99.90;;;;;;4991892;28;20193;-66
2023/08/31 01:58:25;;;;;;;16.90;6.23;;;11.00;99.90;;;;;;4991729;28;20705;-65
2023/08/31 02:00:51;;;;;;;11.63;5.90;;;11.10;99.90;;;;;;4991818;28;20698;-65
2023/08/31 02:03:16;;;;;;;23.37;6.10;;;11.10;99.90;;;;;;4991328;28;20236;-66
2023/08/31 02:05:42;;;;;;;26.87;6.20;;;11.00;99.90;;;;;;4992097;28;20181;-65
2023/08/31 02:08:07;;;;;;;13.40;5.93;;;11.10;99.90;;;;;;4991400;28;20608;-65
2023/08/31 02:10:33;;;;;;;14.60;5.63;;;11.00;99.90;;;;;;5006834;28;20189;-65
2023/08/31 02:13:00;;;;;;;14.77;5.47;;;11.00;99.90;;;;;;4991639;28;20185;-66
2023/08/31 02:15:25;;;;;;;9.47;5.60;;;11.00;99.90;;;;;;4991622;28;20185;-66
2023/08/31 02:17:51;;;;;;;9.53;5.40;;;11.00;99.90;;;;;;4991197;28;20588;-66
2023/08/31 02:20:16;;;;;;;10.07;5.60;;;10.90;99.90;;;;;;4991752;28;20181;-65
2023/08/31 02:22:42;;;;;;;8.63;5.07;;;10.90;99.90;;;;;;4991736;28;20343;-65
2023/08/31 02:25:08;;;;;;;12.63;5.27;;;10.90;99.90;;;;;;5006556;28;20201;-65
2023/08/31 02:27:33;;;;;;;9.50;5.40;;;10.90;99.90;;;;;;4991401;28;20197;-65
2023/08/31 02:29:59;;;;;;;19.13;5.77;;;11.00;99.90;;;;;;4991572;28;20193;-66
2023/08/31 02:32:24;;;;;;;18.10;5.37;;;11.00;99.90;;;;;;4991830;28;20551;-65
2023/08/31 02:34:50;;;;;;;11.83;5.30;;;11.00;99.90;;;;;;4991305;28;20678;-66
2023/08/31 02:37:16;;;;;;;8.30;4.90;;;11.00;99.90;;;;;;5006227;28;20658;-65
2023/08/31 02:39:41;;;;;;;26.13;5.17;;;10.90;99.90;;;;;;4991720;28;20689;-66
2023/08/31 02:42:07;;;;;;;14.23;5.70;;;10.90;99.90;;;;;;4991501;28;20264;-66
2023/08/31 02:44:33;;;;;;;10.00;5.10;;;10.80;99.90;;;;;;4991251;28;20333;-66
2023/08/31 02:46:58;;;;;;;9.03;4.90;;;10.80;99.90;;;;;;5005994;28;20268;-66
2023/08/31 02:49:24;;;;;;;14.07;5.63;;;10.80;99.90;;;;;;4991350;28;20264;-66
2023/08/31 02:51:50;;;;;;;9.20;4.70;;;10.90;99.90;;;;;;4991278;28;20249;-66
2023/08/31 02:54:15;;;;;;;9.80;5.30;;;10.90;99.90;;;;;;4991436;28;20552;-65
2023/08/31 02:56:41;;;;;;;12.23;5.03;;;10.90;99.90;;;;;;4991271;28;20204;-65
2023/08/31 02:59:06;;;;;;;8.83;5.27;;;11.00;99.90;;;;;;5006307;28;20177;-65
2023/08/31 03:01:32;;;;;;;8.90;5.10;;;11.00;99.90;;;;;;4991400;28;20193;-65
2023/08/31 03:03:57;;;;;;;9.60;5.13;;;11.00;99.90;;;;;;4991270;28;20205;-65
2023/08/31 03:06:23;;;;;;;11.13;5.70;;;11.00;99.90;;;;;;4991183;28;20189;-66
2023/08/31 03:08:48;;;;;;;10.97;5.80;;;11.00;99.90;;;;;;4990498;28;20264;-66
2023/08/31 03:11:14;;;;;;;12.13;5.23;;;11.00;99.90;;;;;;5006351;28;20186;-66
2023/08/31 03:13:40;;;;;;;9.87;5.43;;;11.10;99.90;;;;;;4991438;28;20278;-66
2023/08/31 03:16:07;;;;;;;9.60;5.10;;;11.10;99.90;;;;;;4994925;28;20567;-66
2023/08/31 03:18:32;;;;;;;11.07;5.07;;;11.00;99.90;;;;;;4994625;28;20251;-65
2023/08/31 03:20:58;;;;;;;9.50;5.50;;;11.10;99.90;;;;;;4994900;28;20185;-66
2023/08/31 03:23:24;;;;;;;8.83;5.30;;;11.00;99.90;;;;;;4994775;28;20208;-66
2023/08/31 03:25:50;;;;;;;9.73;5.43;;;11.10;99.90;;;;;;4994875;28;20212;-66
2023/08/31 03:28:15;;;;;;;11.43;5.70;;;11.10;99.90;;;;;;4994294;28;20204;-65
2023/08/31 03:30:41;;;;;;;8.43;5.17;;;11.10;99.90;;;;;;4994670;28;20261;-65
2023/08/31 03:33:06;;;;;;;8.87;5.17;;;11.00;99.90;;;;;;4994677;28;20189;-66
2023/08/31 03:35:32;;;;;;;9.00;5.03;;;11.10;99.90;;;;;;4994596;28;20737;-65
2023/08/31 03:37:58;;;;;;;11.60;5.07;;;11.10;99.90;;;;;;4994038;28;20181;-65
2023/08/31 03:40:24;;;;;;;8.60;4.90;;;11.00;99.90;;;;;;4994592;28;20663;-66
2023/08/31 03:42:49;;;;;;;13.03;4.93;;;11.00;99.90;;;;;;4994553;28;20188;-66
2023/08/31 03:45:15;;;;;;;10.07;4.90;;;11.10;99.90;;;;;;4994758;28;20189;-66
2023/08/31 03:47:40;;;;;;;9.33;5.47;;;11.10;99.90;;;;;;5008905;28;20261;-66
2023/08/31 03:50:06;;;;;;;22.03;6.30;;;11.10;99.90;;;;;;4994383;28;20189;-66
2023/08/31 03:52:32;;;;;;;11.73;5.60;;;11.10;99.90;;;;;;4994274;28;20193;-65
2023/08/31 03:54:58;;;;;;;10.93;5.23;;;11.00;99.90;;;;;;5009621;28;20205;-66
2023/08/31 03:57:23;;;;;;;10.43;5.20;;;11.00;99.90;;;;;;4993718;28;20185;-66
2023/08/31 03:59:49;;;;;;;9.87;5.50;;;11.00;99.90;;;;;;4994323;28;20203;-66
2023/08/31 04:02:14;;;;;;;9.03;4.93;;;11.00;99.90;;;;;;4994215;28;20189;-65
2023/08/31 04:04:40;;;;;;;10.60;5.60;;;10.90;99.90;;;;;;4994048;28;20212;-66
2023/08/31 04:07:06;;;;;;;11.33;4.77;;;10.90;99.90;;;;;;4993631;28;20177;-66
2023/08/31 04:09:32;;;;;;;9.07;5.10;;;10.90;99.90;;;;;;4994009;28;20275;-65
2023/08/31 04:11:57;;;;;;;11.00;5.23;;;11.00;99.90;;;;;;4994220;28;20666;-66
2023/08/31 04:14:23;;;;;;;9.70;5.40;;;10.90;99.90;;;;;;4993882;28;20220;-66
2023/08/31 04:16:50;;;;;;;7.50;4.60;;;11.00;99.90;;;;;;4993190;28;20212;-66
2023/08/31 04:19:16;;;;;;;9.83;4.90;;;11.00;99.90;;;;;;4993780;28;20177;-65
2023/08/31 04:21:42;;;;;;;8.73;5.00;;;11.00;99.90;;;;;;4993854;28;20177;-66
2023/08/31 04:24:08;;;;;;;9.93;5.10;;;11.00;99.90;;;;;;4993743;28;20573;-66
2023/08/31 04:26:33;;;;;;;11.37;5.93;;;11.10;99.90;;;;;;4992942;28;20275;-65
2023/08/31 04:28:59;;;;;;;10.27;5.63;;;11.00;99.90;;;;;;4993191;28;20488;-66
2023/08/31 04:31:24;;;;;;;11.90;5.77;;;11.00;99.90;;;;;;4993567;28;20192;-66
2023/08/31 04:33:53;;;;;;;9.07;5.93;;;11.00;99.90;;;;;;4993587;28;20201;-65
2023/08/31 04:36:19;;;;;;;10.07;5.33;;;11.00;99.90;;;;;;4993546;28;20197;-65
2023/08/31 04:38:45;;;;;;;12.50;5.57;;;11.00;99.90;;;;;;4992999;28;20220;-65
2023/08/31 04:41:10;;;;;;;11.53;5.87;;;11.10;99.90;;;;;;4993749;28;20209;-66
2023/08/31 04:43:36;;;;;;;19.03;6.10;;;11.10;99.90;;;;;;4993447;28;20548;-65
2023/08/31 04:46:03;;;;;;;14.20;5.73;;;11.10;99.90;;;;;;4993428;28;20260;-66
2023/08/31 04:48:29;;;;;;;12.07;5.80;;;11.00;99.90;;;;;;4992909;28;20177;-66
2023/08/31 04:50:58;;;;;;;12.03;6.00;;;11.00;99.90;;;;;;4993221;28;20679;-65
2023/08/31 04:53:23;;;;;;;12.10;5.47;;;11.10;99.90;;;;;;5008356;28;20205;-65
2023/08/31 04:55:49;;;;;;;13.60;6.00;;;11.00;99.90;;;;;;4993386;28;20215;-65
2023/08/31 04:58:14;;;;;;;13.67;5.27;;;11.00;99.90;;;;;;4992448;28;20595;-66
2023/08/31 05:00:40;;;;;;;10.20;5.30;;;11.00;99.90;;;;;;4992603;28;20635;-65
2023/08/31 05:03:06;;;;;;;7.80;4.87;;;11.00;99.90;;;;;;4992821;28;20173;-66
2023/08/31 05:05:31;;;;;;;11.13;5.20;;;11.10;99.90;;;;;;4992219;28;20192;-66
2023/08/31 05:07:57;;;;;;;9.83;5.63;;;11.10;99.90;;;;;;4991819;28;20181;-66
2023/08/31 05:10:22;;;;;;;7.90;4.90;;;11.10;99.90;;;;;;4992348;28;20280;-65
2023/08/31 05:12:48;;;;;;;10.57;5.60;;;11.10;99.90;;;;;;5007424;28;20213;-66
2023/08/31 05:15:13;;;;;;;10.90;5.60;;;11.20;99.90;;;;;;4992175;28;20271;-66
2023/08/31 05:17:39;;;;;;;8.50;5.30;;;11.20;99.90;;;;;;4991539;28;20181;-65
2023/08/31 05:20:05;;;;;;;8.60;5.40;;;11.30;99.90;;;;;;4991781;28;20185;-66
2023/08/31 05:22:31;;;;;;;7.97;4.90;;;11.30;99.90;;;;;;4992178;28;20288;-65
2023/08/31 05:24:57;;;;;;;8.73;5.00;;;11.30;99.90;;;;;;4991990;28;20291;-65
2023/08/31 05:27:22;;;;;;;9.77;5.00;;;11.40;99.90;;;;;;4991414;28;20336;-65
2023/08/31 05:29:48;;;;;;;9.27;4.50;;;11.40;99.90;;;;;;4991803;28;20292;-66
2023/08/31 05:32:13;;;;;;;12.20;5.40;;;11.30;99.90;;;;;;5010080;28;20271;-66
2023/08/31 05:34:39;;;;;;;10.00;5.40;;;11.40;99.90;;;;;;5011384;28;20363;-66
2023/08/31 05:37:05;;;;;;;8.40;4.93;;;11.40;99.90;;;;;;5010339;28;20173;-66
2023/08/31 05:39:31;;;;;;;7.60;4.80;;;11.50;99.90;;;;;;5011053;28;20188;-65
2023/08/31 05:41:56;;;;;;;8.93;4.87;;;11.60;99.90;;;;;;5011510;28;20172;-65
2023/08/31 05:44:22;;;;;;;10.80;5.53;;;11.70;99.90;;;;;;5010494;28;20346;-66
2023/08/31 05:46:48;;;;;;;10.90;5.60;;;11.80;99.90;;;;;;5010681;28;20184;-65
2023/08/31 05:49:13;;;;;;;11.17;4.87;;;11.70;99.90;;;;;;5011137;28;20176;-66
2023/08/31 05:51:39;;;;;;;11.20;4.87;;;11.80;99.90;;;;;;4998565;28;20200;-66
2023/08/31 05:54:05;;;;;;;9.30;5.00;;;11.90;99.90;;;;;;5007054;28;20197;-66
2023/08/31 05:56:30;;;;;;;8.70;5.07;;;11.90;99.90;;;;;;4991805;28;20300;-66
2023/08/31 05:58:56;;;;;;;8.63;5.10;;;11.90;99.90;;;;;;4999207;28;20619;-65
2023/08/31 06:01:24;;;;;;;9.57;4.93;;;11.90;99.90;;;;;;5008083;28;20176;-66
2023/08/31 06:03:50;;;;;;;9.23;4.87;;;12.00;99.90;;;;;;5010958;28;20236;-66
2023/08/31 06:06:16;;;;;;;8.03;4.70;;;12.00;99.90;;;;;;5009417;28;20196;-66
2023/08/31 06:08:43;;;;;;;11.57;4.97;;;12.10;99.90;;;;;;5010396;28;20529;-66
2023/08/31 06:11:08;;;;;;;11.47;5.67;;;12.20;99.90;;;;;;5011256;28;20176;-66
2023/08/31 06:13:34;;;;;;;8.07;4.63;;;12.20;99.90;;;;;;5010746;28;20219;-66
2023/08/31 06:15:59;;;;;;;7.50;4.30;;;12.20;99.90;;;;;;5010783;28;20196;-66
2023/08/31 06:18:26;;;;;;;10.87;4.80;;;12.30;99.90;;;;;;5010146;28;20204;-66
2023/08/31 06:20:51;;;;;;;9.53;5.30;;;12.40;99.90;;;;;;5011010;28;20183;-66
2023/08/31 06:23:17;;;;;;;7.87;4.70;;;12.40;99.90;;;;;;5010692;28;20196;-66
2023/08/31 06:25:42;;;;;;;11.90;5.33;;;12.50;99.90;;;;;;5010778;28;20180;-66
2023/08/31 06:28:11;;;;;;;8.33;5.23;;;12.60;99.90;;;;;;5010089;28;20189;-66
2023/08/31 06:30:36;;;;;;;14.60;6.70;;;12.80;99.90;;;;;;5010847;28;20184;-66
2023/08/31 06:33:02;;;;;;;14.87;6.23;;;12.90;99.90;;;;;;5010593;28;20568;-66
2023/08/31 06:35:27;;;;;;;11.43;5.50;;;13.20;99.90;;;;;;5009417;28;20682;-66
2023/08/31 06:37:55;;;;;;;8.17;4.80;;;13.30;99.90;;;;;;5009931;28;20224;-66
2023/08/31 06:40:21;;;;;;;10.63;4.40;;;13.50;99.90;;;;;;5010599;28;20176;-66
2023/08/31 06:42:46;;;;;;;11.33;4.37;;;13.80;99.90;;;;;;5009184;28;20176;-66
2023/08/31 06:45:12;;;;;;;9.60;4.40;;;14.10;99.90;;;;;;5009077;28;20287;-66
2023/08/31 06:47:37;;;;;;;9.20;4.93;;;14.40;99.90;;;;;;5009720;28;20322;-66
2023/08/31 06:50:03;;;;;;;11.90;5.50;;;14.80;99.90;;;;;;5008703;28;20267;-66
2023/08/31 06:52:29;;;;;;;7.13;4.53;;;15.10;99.90;;;;;;4991033;28;20255;-66
2023/08/31 06:54:56;;;;;;;11.03;4.30;;;15.30;99.90;;;;;;4990682;28;20201;-66
2023/08/31 06:57:23;;;;;;;10.03;4.80;;;15.50;99.90;;;;;;4990313;28;20181;-66
2023/08/31 06:59:48;;;;;;;10.87;4.70;;;15.60;99.90;;;;;;4989713;28;20161;-66
2023/08/31 07:02:14;;;;;;;10.83;5.10;;;15.60;99.90;;;;;;4990593;28;20225;-66
2023/08/31 07:04:40;;;;;;;12.03;4.30;;;15.60;99.90;;;;;;4990928;28;20193;-66
2023/08/31 07:07:06;;;;;;;10.63;3.60;;;15.90;99.90;;;;;;4988479;28;20180;-66
2023/08/31 07:09:31;;;;;;;8.00;4.07;;;16.10;99.90;;;;;;4990711;28;20162;-66
2023/08/31 07:11:58;;;;;;;8.10;4.30;;;16.50;99.90;;;;;;4989419;28;20228;-66
2023/08/31 07:14:23;;;;;;;7.07;3.37;;;16.70;99.90;;;;;;4990493;28;20209;-66
2023/08/31 07:16:50;;;;;;;6.03;2.70;;;17.00;99.90;;;;;;4988217;28;20201;-67
2023/08/31 07:19:15;;;;;;;8.27;2.27;;;16.80;99.90;;;;;;4990603;28;20173;-66
2023/08/31 07:21:41;;;;;;;6.13;2.50;;;16.70;99.90;;;;;;4990465;28;20177;-66
2023/08/31 07:24:07;;;;;;;7.20;2.73;;;16.60;99.90;;;;;;4990428;28;20197;-67
2023/08/31 07:26:32;;;;;;;6.90;2.37;;;16.60;99.90;;;;;;4990526;28;20177;-66
2023/08/31 07:28:58;;;;;;;6.07;2.30;;;17.00;99.90;;;;;;4988773;28;20208;-66
2023/08/31 07:31:23;;;;;;;8.20;2.23;;;17.40;99.90;;;;;;4990279;28;20189;-66
2023/08/31 07:33:49;;;;;;;6.73;2.40;;;17.80;99.90;;;;;;4990270;28;20220;-66
2023/08/31 07:36:15;;;;;;;6.30;2.00;;;17.80;99.90;;;;;;4990282;28;20243;-66
2023/08/31 07:38:40;;;;;;;6.27;1.93;;;17.70;99.90;;;;;;4989956;28;20185;-66
2023/08/31 07:41:06;;;;;;;5.83;2.13;;;17.50;99.90;;;;;;4990348;28;20524;-67
2023/08/31 07:43:32;;;;;;;6.13;1.87;;;17.40;99.90;;;;;;4990164;28;20244;-66
2023/08/31 07:45:57;;;;;;;4.03;1.60;;;17.60;99.90;;;;;;4990186;28;20256;-67
2023/08/31 07:48:23;;;;;;;3.53;1.63;;;18.00;99.90;;;;;;4989683;28;20186;-66
2023/08/31 07:50:48;;;;;;;6.53;1.80;;;18.50;99.90;;;;;;4990154;28;20189;-67
2023/08/31 07:53:14;;;;;;;4.83;1.90;;;18.60;99.90;;;;;;4990150;28;20197;-67
2023/08/31 07:55:40;;;;;;;2.37;1.67;;;18.80;99.90;;;;;;4988837;28;20271;-67
2023/08/31 07:58:05;;;;;;;7.47;1.77;;;19.50;99.90;;;;;;4988113;28;20173;-67
2023/08/31 08:00:31;;;;;;;4.57;1.50;;;19.80;99.90;;;;;;4990145;28;20212;-67
2023/08/31 08:02:56;;;;;;;7.00;1.70;;;19.20;99.90;;;;;;4993380;28;20174;-66
2023/08/31 08:05:22;;;;;;;4.03;1.70;;;19.00;99.90;;;;;;4992753;28;20549;-66
2023/08/31 08:07:47;;;;;;;3.13;1.60;;;19.00;99.90;;;;;;4992346;28;20711;-66
2023/08/31 08:10:14;;;;;;;4.20;2.20;;;18.70;99.90;;;;;;4993830;28;20527;-66
2023/08/31 08:12:40;;;;;;;4.17;1.87;;;19.20;99.90;;;;;;4992851;28;20648;-67
2023/08/31 08:15:09;;;;;;;4.97;1.70;;;19.50;99.90;;;;;;4993425;28;20205;-67
2023/08/31 08:17:35;;;;;;;7.53;2.20;;;19.50;99.90;;;;;;4991521;28;20196;-67
2023/08/31 08:20:01;;;;;;;8.57;1.97;;;19.80;99.90;;;;;;4993196;28;20181;-67
2023/08/31 08:22:26;;;;;;;3.23;1.70;;;19.70;99.90;;;;;;4993170;28;20177;-67
2023/08/31 08:24:52;;;;;;;4.83;1.57;;;19.50;99.90;;;;;;4993119;28;20248;-67
2023/08/31 08:27:18;;;;;;;3.60;1.67;;;19.20;99.90;;;;;;4991441;28;20188;-67
2023/08/31 08:29:44;;;;;;;4.80;1.70;;;19.10;99.90;;;;;;4992865;28;20193;-67
2023/08/31 08:32:10;;;;;;;4.70;1.70;;;19.40;99.90;;;;;;4992037;28;20611;-67
2023/08/31 08:34:35;;;;;;;8.30;2.10;;;19.60;99.90;;;;;;4992897;28;20343;-67
2023/08/31 08:37:03;;;;;;;2.47;1.50;;;20.30;99.90;;;;;;4991102;28;20303;-67
2023/08/31 08:39:29;;;;;;;5.13;1.60;;;20.80;99.90;;;;;;4993448;28;20185;-67
2023/08/31 08:41:54;;;;;;;4.37;1.90;;;20.80;99.90;;;;;;4992824;28;20185;-67
2023/08/31 08:44:20;;;;;;;2.53;1.40;;;20.90;99.90;;;;;;4991508;28;20587;-67
2023/08/31 08:46:45;;;;;;;9.80;1.53;;;21.10;99.90;;;;;;4990896;28;20701;-68
2023/08/31 08:49:11;;;;;;;7.03;1.90;;;21.50;99.90;;;;;;4991355;28;20245;-67
2023/08/31 08:51:36;;;;;;;2.77;1.47;;;21.30;99.90;;;;;;4991646;28;20188;-67
2023/08/31 08:54:03;;;;;;;4.67;1.47;;;20.80;99.90;;;;;;4991237;28;20208;-67
2023/08/31 08:56:28;;;;;;;5.53;1.50;;;20.60;99.90;;;;;;4991413;28;20261;-67
2023/08/31 08:58:54;;;;;;;3.83;1.50;;;21.50;99.90;;;;;;4991976;28;20622;-67
2023/08/31 09:01:22;;;;;;;5.23;1.50;;;22.10;99.90;;;;;;4992555;28;20580;-67
2023/08/31 09:03:49;;;;;;;2.77;1.43;;;22.60;99.90;;;;;;4991285;28;20202;-67
2023/08/31 09:06:14;;;;;;;4.57;1.40;;;23.00;99.90;;;;;;4992445;28;20267;-67
2023/08/31 09:08:40;;;;;;;4.03;1.53;;;22.80;99.90;;;;;;4991618;28;20668;-68
2023/08/31 09:11:06;;;;;;;3.57;1.40;;;22.50;99.90;;;;;;4990927;28;20260;-68
2023/08/31 09:13:33;;;;;;;3.93;1.40;;;22.00;99.90;;;;;;4992323;28;20659;-67
2023/08/31 09:15:59;;;;;;;2.83;1.30;;;21.80;99.90;;;;;;4990710;28;20284;-67
2023/08/31 09:18:26;;;;;;;4.17;1.47;;;21.50;99.90;;;;;;4991421;28;20312;-67
2023/08/31 09:20:52;;;;;;;6.67;1.60;;;20.80;99.90;;;;;;4992407;28;20251;-67
2023/08/31 09:23:18;;;;;;;2.93;1.50;;;20.70;99.90;;;;;;4990770;28;20671;-67
2023/08/31 09:25:50;;;;;;;3.10;1.53;;;20.50;99.90;;;;;;4991921;28;20204;-66
2023/08/31 09:28:16;;;;;;;5.10;1.83;;;20.70;99.90;;;;;;4991377;28;20193;-67
2023/08/31 09:30:42;;;;;;;2.70;1.30;;;21.30;99.90;;;;;;4990571;28;20189;-67
2023/08/31 09:33:09;;;;;;;4.27;1.40;;;22.00;99.90;;;;;;4991654;28;20185;-67
2023/08/31 09:35:39;;;;;;;4.93;1.30;;;22.60;99.90;;;;;;4990676;28;20214;-69
2023/08/31 09:38:07;;;;;;;2.47;0.83;;;23.00;99.90;;;;;;4990175;28;20169;-67
2023/08/31 09:40:33;;;;;;;4.87;1.00;;;23.40;99.90;;;;;;4989301;28;20183;-67
2023/08/31 09:42:58;;;;;;;2.20;1.20;;;23.90;99.90;;;;;;4990048;28;20184;-67
2023/08/31 09:45:34;;;;;;;6.90;1.20;;;24.00;99.90;;;;;;4991324;28;20272;-68
2023/08/31 09:48:01;;;;;;;1.67;0.80;;;23.30;99.90;;;;;;4990531;28;20636;-68
2023/08/31 09:50:30;;;;;;;2.83;0.87;;;23.10;99.90;;;;;;4990127;28;20642;-69
2023/08/31 09:52:58;;;;;;;3.63;1.10;;;22.70;99.90;;;;;;4974364;28;20187;-67
2023/08/31 09:55:25;;;;;;;4.30;1.07;;;22.90;99.90;;;;;;4973655;28;20200;-67
2023/08/31 09:57:51;;;;;;;3.73;1.00;;;23.00;99.90;;;;;;4988759;28;20245;-68
2023/08/31 10:00:18;;;;;;;2.50;1.03;;;23.70;99.90;;;;;;4988608;28;20180;-67
2023/08/31 10:02:43;;;;;;;3.80;1.10;;;24.10;99.90;;;;;;4990286;28;20270;-67
2023/08/31 10:05:09;;;;;;;2.37;1.00;;;24.00;99.90;;;;;;4989763;28;20626;-67
2023/08/31 10:07:35;;;;;;;4.20;0.80;;;23.80;99.90;;;;;;4990979;28;20590;-67
2023/08/31 10:10:00;;;;;;;4.33;1.00;;;24.10;99.90;;;;;;4990588;28;20659;-67
2023/08/31 10:12:27;;;;;;;3.50;1.00;;;24.00;99.90;;;;;;4990430;28;20177;-68
2023/08/31 10:14:53;;;;;;;7.03;0.93;;;23.70;99.90;;;;;;4989916;28;20306;-68
2023/08/31 10:17:18;;;;;;;2.23;1.00;;;22.70;99.90;;;;;;4989195;28;20210;-67
2023/08/31 10:19:44;;;;;;;3.30;0.93;;;22.60;99.90;;;;;;4989593;28;20209;-68
2023/08/31 10:22:09;;;;;;;4.37;1.00;;;23.10;99.90;;;;;;4990786;28;20195;-67
2023/08/31 10:25:05;;;;;;;3.07;0.90;;;23.00;99.90;;;;;;4990250;28;20748;-67
2023/08/31 10:27:41;;;;;;;2.77;1.10;;;22.90;99.90;;;;;;4990396;28;20183;-67
2023/08/31 10:30:33;;;;;;;3.83;1.17;;;23.70;99.90;;;;;;4990789;28;20724;-67
2023/08/31 10:33:07;;;;;;;5.77;1.10;;;23.90;99.90;;;;;;4989458;28;20277;-68
2023/08/31 10:35:53;;;;;;;3.80;1.30;;;23.50;99.90;;;;;;4990702;28;20311;-67
2023/08/31 10:38:31;;;;;;;3.93;1.30;;;22.90;99.90;;;;;;4988925;28;20660;-68
2023/08/31 10:41:18;;;;;;;2.73;1.00;;;22.90;99.90;;;;;;4990553;28;20221;-67
2023/08/31 10:43:45;;;;;;;2.00;1.10;;;22.50;99.90;;;;;;4990614;28;20486;-67
2023/08/31 10:46:43;;;;;;;2.77;1.13;;;21.80;99.90;;;;;;4990544;28;20180;-67
2023/08/31 10:49:11;;;;;;;4.57;1.20;;;21.20;99.90;;;;;;4989173;28;20787;-68
2023/08/31 10:51:38;;;;;;;2.83;1.03;;;20.70;99.90;;;;;;4990606;28;20170;-67
2023/08/31 10:54:10;;;;;;;4.70;1.23;;;20.60;99.90;;;;;;4989311;28;20201;-68
2023/08/31 10:57:01;;;;;;;4.03;1.00;;;20.20;99.90;;;;;;4988942;28;20204;-67
2023/08/31 10:59:41;;;;;;;8.03;1.67;;;20.10;99.90;;;;;;4989413;28;20169;-67
2023/08/31 11:02:07;;;;;;;7.03;1.10;;;20.00;99.90;;;;;;4989474;28;20177;-67
2023/08/31 11:04:53;;;;;;;3.17;1.23;;;20.10;99.90;;;;;;4989093;28;20200;-67
2023/08/31 11:07:19;;;;;;;4.90;1.43;;;20.20;99.90;;;;;;4991267;28;20165;-67
2023/08/31 11:09:46;;;;;;;4.90;1.47;;;19.90;99.90;;;;;;4990132;28;20177;-67
2023/08/31 11:12:12;;;;;;;4.70;1.50;;;20.00;99.90;;;;;;4989073;28;20174;-67
2023/08/31 11:14:37;;;;;;;8.07;1.60;;;20.20;99.90;;;;;;4988807;28;20585;-68
2023/08/31 11:17:04;;;;;;;3.13;1.30;;;20.20;99.90;;;;;;4986605;28;20291;-69
2023/08/31 11:19:30;;;;;;;4.23;1.43;;;20.60;99.90;;;;;;4988386;28;20169;-68
2023/08/31 11:21:56;;;;;;;2.93;1.10;;;20.40;99.90;;;;;;4988434;28;20539;-68
2023/08/31 11:24:21;;;;;;;7.70;1.37;;;20.10;99.90;;;;;;4989201;28;20193;-68
2023/08/31 11:26:56;;;;;;;5.40;1.43;;;20.00;99.90;;;;;;5017333;28;20264;-68
2023/08/31 11:29:21;;;;;;;4.20;1.23;;;19.80;99.90;;;;;;5002911;28;20188;-68
2023/08/31 11:31:47;;;;;;;2.87;1.10;;;19.60;99.90;;;;;;5000179;28;20195;-68
2023/08/31 11:34:13;;;;;;;3.37;1.20;;;19.60;99.90;;;;;;4998433;28;20685;-68
2023/08/31 11:36:40;;;;;;;3.37;1.37;;;19.30;99.90;;;;;;5005293;28;20690;-68
2023/08/31 11:39:06;;;;;;;5.70;1.10;;;19.10;99.90;;;;;;4990118;28;20177;-67
2023/08/31 11:41:37;;;;;;;6.37;1.20;;;19.20;99.90;;;;;;5005873;28;20247;-68
2023/08/31 11:44:03;;;;;;;2.33;1.30;;;19.60;99.90;;;;;;4980965;28;118896;-68
2023/08/31 11:46:29;;;;;;;5.37;1.13;;;19.90;99.90;;;;;;5009873;28;20863;-68
2023/08/31 11:48:55;;;;;;;4.57;1.40;;;20.10;99.90;;;;;;4998666;28;20197;-68
2023/08/31 11:51:21;;;;;;;5.87;1.67;;;20.30;99.90;;;;;;4999450;28;20194;-68
2023/08/31 11:53:47;;;;;;;3.03;1.40;;;20.30;99.90;;;;;;4990560;28;20228;-68
2023/08/31 11:56:13;;;;;;;2.60;1.20;;;20.30;99.90;;;;;;4999910;28;20239;-69
2023/08/31 11:58:45;;;;;;;5.80;1.27;;;20.30;99.90;;;;;;5006810;28;21033;-68
2023/08/31 12:01:18;;;;;;;3.97;1.30;;;20.30;99.90;;;;;;5004004;28;20181;-69
2023/08/31 12:03:45;;;;;;;3.50;1.23;;;20.50;99.90;;;;;;5003196;28;20684;-69
2023/08/31 12:06:10;;;;;;;3.37;1.20;;;20.80;99.90;;;;;;5009950;28;20173;-69
2023/08/31 12:08:37;;;;;;;4.40;1.27;;;21.10;99.90;;;;;;5004110;28;20199;-69
2023/08/31 12:11:02;;;;;;;4.83;1.23;;;21.10;99.90;;;;;;5009376;28;20231;-68
2023/08/31 12:13:28;;;;;;;4.70;1.43;;;21.10;99.90;;;;;;4999984;28;20208;-69
2023/08/31 12:15:55;;;;;;;4.93;1.27;;;21.10;99.90;;;;;;5004736;28;20625;-68
2023/08/31 12:18:21;;;;;;;4.73;1.17;;;21.20;99.90;;;;;;5005902;28;20344;-69
2023/08/31 12:20:47;;;;;;;7.70;1.40;;;21.40;99.90;;;;;;5003938;28;20847;-68
2023/08/31 12:23:16;;;;;;;5.77;1.00;;;21.40;99.90;;;;;;5003072;28;20263;-69
2023/08/31 12:25:49;;;;;;;4.60;1.17;;;21.20;99.90;;;;;;5011556;28;20181;-68
2023/08/31 12:28:16;;;;;;;5.90;1.30;;;21.00;99.90;;;;;;5011781;28;20184;-68
2023/08/31 12:30:46;;;;;;;4.53;1.30;;;21.10;99.90;;;;;;5010711;28;20188;-69
2023/08/31 12:33:11;;;;;;;4.87;1.60;;;21.60;99.90;;;;;;5011700;28;20280;-68
2023/08/31 12:35:38;;;;;;;3.33;1.20;;;22.00;99.90;;;;;;5012015;28;20339;-68
2023/08/31 12:38:03;;;;;;;2.70;1.07;;;22.30;99.90;;;;;;5012147;28;20173;-69
2023/08/31 12:40:29;;;;;;;3.17;1.33;;;22.50;99.90;;;;;;5012331;28;20177;-68
2023/08/31 12:42:55;;;;;;;4.90;1.50;;;22.40;99.90;;;;;;5012347;28;20593;-70